sensor_id;sensor_type;location;lat;lon;timestamp;P1;durP1;ratioP1;P2;durP2;ratioP2
60026;SDS011;45891;53.006;6.512;2023-05-10T00:00:42;18.83;;;12.00;;
60026;SDS011;45891;53.006;6.512;2023-05-10T00:03:08;17.45;;;11.55;;
60026;SDS011;45891;53.006;6.512;2023-05-10T00:05:34;20.02;;;11.90;;
60026;SDS011;45891;53.006;6.512;2023-05-10T00:08:00;18.90;;;12.18;;
60026;SDS011;45891;53.006;6.512;2023-05-10T00:10:27;17.80;;;11.95;;
60026;SDS011;45891;53.006;6.512;2023-05-10T00:12:53;17.70;;;11.68;;
60026;SDS011;45891;53.006;6.512;2023-05-10T00:15:19;17.25;;;11.98;;
60026;SDS011;45891;53.006;6.512;2023-05-10T00:17:45;18.92;;;11.95;;
60026;SDS011;45891;53.006;6.512;2023-05-10T00:20:11;17.65;;;11.75;;
60026;SDS011;45891;53.006;6.512;2023-05-10T00:22:37;18.33;;;11.25;;
60026;SDS011;45891;53.006;6.512;2023-05-10T00:25:03;17.20;;;11.30;;
60026;SDS011;45891;53.006;6.512;2023-05-10T00:27:30;17.45;;;11.07;;
60026;SDS011;45891;53.006;6.512;2023-05-10T00:29:56;17.98;;;11.90;;
60026;SDS011;45891;53.006;6.512;2023-05-10T00:32:22;19.00;;;11.55;;
60026;SDS011;45891;53.006;6.512;2023-05-10T00:34:48;16.10;;;11.00;;
60026;SDS011;45891;53.006;6.512;2023-05-10T00:37:15;19.02;;;11.80;;
60026;SDS011;45891;53.006;6.512;2023-05-10T00:39:41;17.35;;;11.40;;
60026;SDS011;45891;53.006;6.512;2023-05-10T00:42:08;16.77;;;10.52;;
60026;SDS011;45891;53.006;6.512;2023-05-10T00:44:34;17.17;;;11.07;;
60026;SDS011;45891;53.006;6.512;2023-05-10T00:47:00;17.70;;;11.25;;
60026;SDS011;45891;53.006;6.512;2023-05-10T00:49:26;16.67;;;11.27;;
60026;SDS011;45891;53.006;6.512;2023-05-10T00:51:52;17.13;;;10.82;;
60026;SDS011;45891;53.006;6.512;2023-05-10T00:54:19;18.63;;;11.48;;
60026;SDS011;45891;53.006;6.512;2023-05-10T00:56:45;16.67;;;11.10;;
60026;SDS011;45891;53.006;6.512;2023-05-10T00:59:14;17.33;;;10.30;;
60026;SDS011;45891;53.006;6.512;2023-05-10T01:01:42;19.42;;;11.98;;
60026;SDS011;45891;53.006;6.512;2023-05-10T01:04:12;21.70;;;11.90;;
60026;SDS011;45891;53.006;6.512;2023-05-10T01:06:42;19.38;;;11.00;;
60026;SDS011;45891;53.006;6.512;2023-05-10T01:09:08;20.35;;;11.90;;
60026;SDS011;45891;53.006;6.512;2023-05-10T01:11:35;20.60;;;11.43;;
60026;SDS011;45891;53.006;6.512;2023-05-10T01:14:03;19.48;;;11.82;;
60026;SDS011;45891;53.006;6.512;2023-05-10T01:16:33;21.50;;;11.73;;
60026;SDS011;45891;53.006;6.512;2023-05-10T01:29:28;22.85;;;12.95;;
60026;SDS011;45891;53.006;6.512;2023-05-10T01:35:12;24.63;;;15.02;;
60026;SDS011;45891;53.006;6.512;2023-05-10T01:37:50;28.75;;;15.07;;
60026;SDS011;45891;53.006;6.512;2023-05-10T01:40:26;25.85;;;14.90;;
60026;SDS011;45891;53.006;6.512;2023-05-10T01:42:58;23.00;;;14.60;;
60026;SDS011;45891;53.006;6.512;2023-05-10T01:45:29;25.10;;;15.30;;
60026;SDS011;45891;53.006;6.512;2023-05-10T01:48:06;24.13;;;14.98;;
60026;SDS011;45891;53.006;6.512;2023-05-10T01:50:35;23.58;;;13.98;;
60026;SDS011;45891;53.006;6.512;2023-05-10T01:53:05;23.42;;;14.27;;
60026;SDS011;45891;53.006;6.512;2023-05-10T01:55:47;24.60;;;14.65;;
60026;SDS011;45891;53.006;6.512;2023-05-10T01:58:27;22.52;;;14.27;;
60026;SDS011;45891;53.006;6.512;2023-05-10T02:00:55;21.15;;;12.63;;
60026;SDS011;45891;53.006;6.512;2023-05-10T02:03:26;22.83;;;14.60;;
60026;SDS011;45891;53.006;6.512;2023-05-10T02:05:53;25.08;;;14.50;;
60026;SDS011;45891;53.006;6.512;2023-05-10T02:08:21;26.98;;;14.60;;
60026;SDS011;45891;53.006;6.512;2023-05-10T02:10:49;24.60;;;15.07;;
60026;SDS011;45891;53.006;6.512;2023-05-10T02:13:17;21.73;;;13.95;;
60026;SDS011;45891;53.006;6.512;2023-05-10T02:15:46;23.90;;;14.40;;
60026;SDS011;45891;53.006;6.512;2023-05-10T02:18:14;24.38;;;14.60;;
60026;SDS011;45891;53.006;6.512;2023-05-10T02:20:43;23.95;;;14.13;;
60026;SDS011;45891;53.006;6.512;2023-05-10T02:23:11;27.42;;;15.85;;
60026;SDS011;45891;53.006;6.512;2023-05-10T02:25:37;28.15;;;15.75;;
60026;SDS011;45891;53.006;6.512;2023-05-10T02:28:05;23.45;;;14.82;;
60026;SDS011;45891;53.006;6.512;2023-05-10T02:30:33;26.90;;;16.30;;
60026;SDS011;45891;53.006;6.512;2023-05-10T02:33:00;25.02;;;15.10;;
60026;SDS011;45891;53.006;6.512;2023-05-10T02:35:29;25.30;;;15.38;;
60026;SDS011;45891;53.006;6.512;2023-05-10T02:37:56;27.88;;;16.00;;
60026;SDS011;45891;53.006;6.512;2023-05-10T02:40:24;29.30;;;17.67;;
60026;SDS011;45891;53.006;6.512;2023-05-10T02:42:53;29.70;;;17.45;;
60026;SDS011;45891;53.006;6.512;2023-05-10T02:45:23;32.00;;;17.67;;
60026;SDS011;45891;53.006;6.512;2023-05-10T02:47:53;30.58;;;16.65;;
60026;SDS011;45891;53.006;6.512;2023-05-10T02:50:20;30.10;;;17.38;;
60026;SDS011;45891;53.006;6.512;2023-05-10T02:52:49;30.40;;;17.60;;
60026;SDS011;45891;53.006;6.512;2023-05-10T02:55:18;30.30;;;17.42;;
60026;SDS011;45891;53.006;6.512;2023-05-10T02:57:57;30.83;;;17.70;;
60026;SDS011;45891;53.006;6.512;2023-05-10T03:00:25;28.98;;;16.83;;
60026;SDS011;45891;53.006;6.512;2023-05-10T03:02:51;26.65;;;16.85;;
60026;SDS011;45891;53.006;6.512;2023-05-10T03:05:18;25.98;;;16.33;;
60026;SDS011;45891;53.006;6.512;2023-05-10T03:07:44;28.00;;;16.70;;
60026;SDS011;45891;53.006;6.512;2023-05-10T03:10:11;29.40;;;17.35;;
60026;SDS011;45891;53.006;6.512;2023-05-10T03:12:52;27.90;;;17.02;;
60026;SDS011;45891;53.006;6.512;2023-05-10T03:20:45;27.73;;;15.93;;
60026;SDS011;45891;53.006;6.512;2023-05-10T03:23:22;26.80;;;16.60;;
60026;SDS011;45891;53.006;6.512;2023-05-10T03:25:55;27.20;;;16.52;;
60026;SDS011;45891;53.006;6.512;2023-05-10T03:28:23;25.77;;;15.88;;
60026;SDS011;45891;53.006;6.512;2023-05-10T03:30:52;25.70;;;17.10;;
60026;SDS011;45891;53.006;6.512;2023-05-10T03:33:20;27.23;;;16.00;;
60026;SDS011;45891;53.006;6.512;2023-05-10T03:35:46;28.38;;;17.30;;
60026;SDS011;45891;53.006;6.512;2023-05-10T03:38:12;27.00;;;16.33;;
60026;SDS011;45891;53.006;6.512;2023-05-10T03:40:38;26.13;;;16.52;;
60026;SDS011;45891;53.006;6.512;2023-05-10T03:43:04;27.42;;;16.10;;
60026;SDS011;45891;53.006;6.512;2023-05-10T03:45:30;23.50;;;14.93;;
60026;SDS011;45891;53.006;6.512;2023-05-10T03:47:57;24.20;;;14.32;;
60026;SDS011;45891;53.006;6.512;2023-05-10T03:50:23;23.48;;;13.55;;
60026;SDS011;45891;53.006;6.512;2023-05-10T03:52:50;20.42;;;12.57;;
60026;SDS011;45891;53.006;6.512;2023-05-10T03:55:16;21.20;;;12.70;;
60026;SDS011;45891;53.006;6.512;2023-05-10T03:57:42;18.02;;;11.88;;
60026;SDS011;45891;53.006;6.512;2023-05-10T04:00:09;18.30;;;12.43;;
60026;SDS011;45891;53.006;6.512;2023-05-10T04:02:35;20.17;;;12.05;;
60026;SDS011;45891;53.006;6.512;2023-05-10T04:05:01;18.98;;;12.00;;
60026;SDS011;45891;53.006;6.512;2023-05-10T04:07:28;19.95;;;12.70;;
60026;SDS011;45891;53.006;6.512;2023-05-10T04:09:54;18.52;;;11.05;;
60026;SDS011;45891;53.006;6.512;2023-05-10T04:12:20;18.55;;;11.18;;
60026;SDS011;45891;53.006;6.512;2023-05-10T04:14:46;18.30;;;11.35;;
60026;SDS011;45891;53.006;6.512;2023-05-10T04:17:13;17.20;;;10.23;;
60026;SDS011;45891;53.006;6.512;2023-05-10T04:19:39;16.88;;;10.50;;
60026;SDS011;45891;53.006;6.512;2023-05-10T04:22:05;15.85;;;10.02;;
60026;SDS011;45891;53.006;6.512;2023-05-10T04:24:31;17.17;;;10.27;;
60026;SDS011;45891;53.006;6.512;2023-05-10T04:26:57;17.77;;;10.23;;
60026;SDS011;45891;53.006;6.512;2023-05-10T04:29:23;18.08;;;11.00;;
60026;SDS011;45891;53.006;6.512;2023-05-10T04:31:49;15.55;;;10.00;;
60026;SDS011;45891;53.006;6.512;2023-05-10T04:34:16;14.48;;;9.75;;
60026;SDS011;45891;53.006;6.512;2023-05-10T04:36:42;15.32;;;9.60;;
60026;SDS011;45891;53.006;6.512;2023-05-10T04:39:08;17.50;;;11.13;;
60026;SDS011;45891;53.006;6.512;2023-05-10T04:41:35;16.23;;;9.75;;
60026;SDS011;45891;53.006;6.512;2023-05-10T04:44:03;15.13;;;9.63;;
60026;SDS011;45891;53.006;6.512;2023-05-10T04:46:29;14.52;;;10.27;;
60026;SDS011;45891;53.006;6.512;2023-05-10T04:48:55;14.23;;;9.40;;
60026;SDS011;45891;53.006;6.512;2023-05-10T04:51:21;13.60;;;9.27;;
60026;SDS011;45891;53.006;6.512;2023-05-10T04:53:47;16.63;;;9.30;;
60026;SDS011;45891;53.006;6.512;2023-05-10T04:56:13;12.98;;;9.13;;
60026;SDS011;45891;53.006;6.512;2023-05-10T04:58:40;14.57;;;9.82;;
60026;SDS011;45891;53.006;6.512;2023-05-10T05:01:06;13.32;;;8.80;;
60026;SDS011;45891;53.006;6.512;2023-05-10T05:03:34;12.25;;;8.80;;
60026;SDS011;45891;53.006;6.512;2023-05-10T05:06:00;12.88;;;8.50;;
60026;SDS011;45891;53.006;6.512;2023-05-10T05:08:27;13.55;;;9.10;;
60026;SDS011;45891;53.006;6.512;2023-05-10T05:10:53;12.23;;;8.35;;
60026;SDS011;45891;53.006;6.512;2023-05-10T05:13:19;12.23;;;8.23;;
60026;SDS011;45891;53.006;6.512;2023-05-10T05:15:46;11.95;;;8.32;;
60026;SDS011;45891;53.006;6.512;2023-05-10T05:18:12;12.70;;;8.07;;
60026;SDS011;45891;53.006;6.512;2023-05-10T05:20:38;12.43;;;7.78;;
60026;SDS011;45891;53.006;6.512;2023-05-10T05:23:04;12.77;;;8.57;;
60026;SDS011;45891;53.006;6.512;2023-05-10T05:25:30;12.82;;;8.13;;
60026;SDS011;45891;53.006;6.512;2023-05-10T05:27:56;11.95;;;8.15;;
60026;SDS011;45891;53.006;6.512;2023-05-10T05:30:22;12.98;;;8.05;;
60026;SDS011;45891;53.006;6.512;2023-05-10T05:32:48;13.57;;;8.52;;
60026;SDS011;45891;53.006;6.512;2023-05-10T05:35:14;12.32;;;7.63;;
60026;SDS011;45891;53.006;6.512;2023-05-10T05:37:40;13.10;;;7.90;;
60026;SDS011;45891;53.006;6.512;2023-05-10T05:40:07;12.88;;;7.88;;
60026;SDS011;45891;53.006;6.512;2023-05-10T05:42:33;11.07;;;7.20;;
60026;SDS011;45891;53.006;6.512;2023-05-10T05:44:59;13.25;;;7.57;;
60026;SDS011;45891;53.006;6.512;2023-05-10T05:47:25;11.73;;;7.40;;
60026;SDS011;45891;53.006;6.512;2023-05-10T05:49:52;12.15;;;7.57;;
60026;SDS011;45891;53.006;6.512;2023-05-10T05:52:18;11.43;;;7.13;;
60026;SDS011;45891;53.006;6.512;2023-05-10T05:54:44;12.85;;;6.70;;
60026;SDS011;45891;53.006;6.512;2023-05-10T05:57:10;10.60;;;6.10;;
60026;SDS011;45891;53.006;6.512;2023-05-10T05:59:36;9.52;;;5.55;;
60026;SDS011;45891;53.006;6.512;2023-05-10T06:02:08;10.40;;;5.80;;
60026;SDS011;45891;53.006;6.512;2023-05-10T06:04:34;9.48;;;5.35;;
60026;SDS011;45891;53.006;6.512;2023-05-10T06:07:00;9.90;;;5.50;;
60026;SDS011;45891;53.006;6.512;2023-05-10T06:09:26;11.07;;;5.40;;
60026;SDS011;45891;53.006;6.512;2023-05-10T06:11:52;9.65;;;5.57;;
60026;SDS011;45891;53.006;6.512;2023-05-10T06:14:21;9.27;;;4.90;;
60026;SDS011;45891;53.006;6.512;2023-05-10T06:16:47;8.95;;;4.50;;
60026;SDS011;45891;53.006;6.512;2023-05-10T06:19:15;9.55;;;4.60;;
60026;SDS011;45891;53.006;6.512;2023-05-10T06:21:41;8.82;;;4.35;;
60026;SDS011;45891;53.006;6.512;2023-05-10T06:24:07;8.88;;;4.50;;
60026;SDS011;45891;53.006;6.512;2023-05-10T06:26:33;8.38;;;4.00;;
60026;SDS011;45891;53.006;6.512;2023-05-10T06:28:59;7.60;;;3.30;;
60026;SDS011;45891;53.006;6.512;2023-05-10T06:31:26;7.00;;;2.80;;
60026;SDS011;45891;53.006;6.512;2023-05-10T06:33:52;6.88;;;2.50;;
60026;SDS011;45891;53.006;6.512;2023-05-10T06:36:18;7.32;;;2.40;;
60026;SDS011;45891;53.006;6.512;2023-05-10T06:38:44;6.43;;;2.10;;
60026;SDS011;45891;53.006;6.512;2023-05-10T06:41:10;6.13;;;1.80;;
60026;SDS011;45891;53.006;6.512;2023-05-10T06:43:37;7.05;;;2.03;;
60026;SDS011;45891;53.006;6.512;2023-05-10T06:46:06;5.72;;;1.80;;
60026;SDS011;45891;53.006;6.512;2023-05-10T06:48:33;4.72;;;1.50;;
60026;SDS011;45891;53.006;6.512;2023-05-10T06:50:59;5.53;;;1.50;;
60026;SDS011;45891;53.006;6.512;2023-05-10T06:53:25;3.85;;;1.20;;
60026;SDS011;45891;53.006;6.512;2023-05-10T06:55:51;4.10;;;1.10;;
60026;SDS011;45891;53.006;6.512;2023-05-10T06:58:17;3.63;;;1.00;;
60026;SDS011;45891;53.006;6.512;2023-05-10T07:00:44;3.08;;;0.80;;
60026;SDS011;45891;53.006;6.512;2023-05-10T07:03:10;2.08;;;0.70;;
60026;SDS011;45891;53.006;6.512;2023-05-10T07:05:36;2.63;;;0.82;;
60026;SDS011;45891;53.006;6.512;2023-05-10T07:08:03;2.63;;;0.70;;
60026;SDS011;45891;53.006;6.512;2023-05-10T07:10:29;1.95;;;0.70;;
60026;SDS011;45891;53.006;6.512;2023-05-10T07:12:55;3.05;;;0.70;;
60026;SDS011;45891;53.006;6.512;2023-05-10T07:15:21;3.40;;;0.70;;
60026;SDS011;45891;53.006;6.512;2023-05-10T07:17:47;2.05;;;0.80;;
60026;SDS011;45891;53.006;6.512;2023-05-10T07:20:13;2.30;;;0.80;;
60026;SDS011;45891;53.006;6.512;2023-05-10T07:22:39;2.78;;;0.90;;
60026;SDS011;45891;53.006;6.512;2023-05-10T07:25:06;4.35;;;1.23;;
60026;SDS011;45891;53.006;6.512;2023-05-10T07:27:32;4.72;;;1.40;;
60026;SDS011;45891;53.006;6.512;2023-05-10T07:29:58;6.10;;;1.80;;
60026;SDS011;45891;53.006;6.512;2023-05-10T07:32:24;4.70;;;1.40;;
60026;SDS011;45891;53.006;6.512;2023-05-10T07:34:50;5.65;;;1.30;;
60026;SDS011;45891;53.006;6.512;2023-05-10T07:37:16;2.47;;;0.90;;
60026;SDS011;45891;53.006;6.512;2023-05-10T07:39:42;2.58;;;0.88;;
60026;SDS011;45891;53.006;6.512;2023-05-10T07:42:08;2.80;;;0.93;;
60026;SDS011;45891;53.006;6.512;2023-05-10T07:44:34;2.50;;;0.80;;
60026;SDS011;45891;53.006;6.512;2023-05-10T07:47:01;2.30;;;0.80;;
60026;SDS011;45891;53.006;6.512;2023-05-10T07:49:27;2.10;;;0.88;;
60026;SDS011;45891;53.006;6.512;2023-05-10T07:51:53;3.22;;;0.90;;
60026;SDS011;45891;53.006;6.512;2023-05-10T07:54:19;3.25;;;0.90;;
60026;SDS011;45891;53.006;6.512;2023-05-10T07:56:45;3.55;;;1.08;;
60026;SDS011;45891;53.006;6.512;2023-05-10T07:59:15;2.95;;;0.90;;
60026;SDS011;45891;53.006;6.512;2023-05-10T08:01:42;5.30;;;1.30;;
60026;SDS011;45891;53.006;6.512;2023-05-10T08:04:09;5.25;;;1.30;;
60026;SDS011;45891;53.006;6.512;2023-05-10T08:06:35;5.78;;;1.50;;
60026;SDS011;45891;53.006;6.512;2023-05-10T08:09:01;6.35;;;1.77;;
60026;SDS011;45891;53.006;6.512;2023-05-10T08:11:27;6.55;;;1.90;;
60026;SDS011;45891;53.006;6.512;2023-05-10T08:13:53;6.70;;;2.20;;
60026;SDS011;45891;53.006;6.512;2023-05-10T08:16:20;7.85;;;2.33;;
60026;SDS011;45891;53.006;6.512;2023-05-10T08:18:46;7.90;;;1.90;;
60026;SDS011;45891;53.006;6.512;2023-05-10T08:21:13;7.10;;;2.45;;
60026;SDS011;45891;53.006;6.512;2023-05-10T08:23:39;6.63;;;2.40;;
60026;SDS011;45891;53.006;6.512;2023-05-10T08:26:06;7.32;;;2.80;;
60026;SDS011;45891;53.006;6.512;2023-05-10T08:28:32;7.00;;;3.13;;
60026;SDS011;45891;53.006;6.512;2023-05-10T08:30:58;7.28;;;2.65;;
60026;SDS011;45891;53.006;6.512;2023-05-10T08:33:24;8.32;;;2.90;;
60026;SDS011;45891;53.006;6.512;2023-05-10T08:35:50;7.43;;;3.10;;
60026;SDS011;45891;53.006;6.512;2023-05-10T08:38:17;7.22;;;3.03;;
60026;SDS011;45891;53.006;6.512;2023-05-10T08:40:44;7.47;;;2.92;;
60026;SDS011;45891;53.006;6.512;2023-05-10T08:43:11;8.30;;;3.20;;
60026;SDS011;45891;53.006;6.512;2023-05-10T08:45:44;9.65;;;2.92;;
60026;SDS011;45891;53.006;6.512;2023-05-10T08:48:13;7.40;;;2.80;;
60026;SDS011;45891;53.006;6.512;2023-05-10T08:50:40;7.47;;;2.97;;
60026;SDS011;45891;53.006;6.512;2023-05-10T08:53:10;7.47;;;2.75;;
60026;SDS011;45891;53.006;6.512;2023-05-10T08:55:38;8.07;;;3.00;;
60026;SDS011;45891;53.006;6.512;2023-05-10T08:58:05;7.55;;;2.70;;
60026;SDS011;45891;53.006;6.512;2023-05-10T09:00:32;7.68;;;2.90;;
60026;SDS011;45891;53.006;6.512;2023-05-10T09:02:59;8.85;;;3.08;;
60026;SDS011;45891;53.006;6.512;2023-05-10T09:05:25;9.88;;;4.00;;
60026;SDS011;45891;53.006;6.512;2023-05-10T09:07:52;8.65;;;4.05;;
60026;SDS011;45891;53.006;6.512;2023-05-10T09:10:18;9.02;;;4.15;;
60026;SDS011;45891;53.006;6.512;2023-05-10T09:12:46;8.63;;;4.18;;
60026;SDS011;45891;53.006;6.512;2023-05-10T09:15:14;8.85;;;4.40;;
60026;SDS011;45891;53.006;6.512;2023-05-10T09:17:41;9.32;;;4.15;;
60026;SDS011;45891;53.006;6.512;2023-05-10T09:20:09;9.57;;;4.50;;
60026;SDS011;45891;53.006;6.512;2023-05-10T09:22:35;10.23;;;4.80;;
60026;SDS011;45891;53.006;6.512;2023-05-10T09:25:05;9.57;;;5.35;;
60026;SDS011;45891;53.006;6.512;2023-05-10T09:27:35;11.13;;;5.40;;
60026;SDS011;45891;53.006;6.512;2023-05-10T09:30:06;10.13;;;5.28;;
60026;SDS011;45891;53.006;6.512;2023-05-10T09:32:41;11.80;;;5.75;;
60026;SDS011;45891;53.006;6.512;2023-05-10T09:35:15;11.25;;;5.57;;
60026;SDS011;45891;53.006;6.512;2023-05-10T09:37:44;11.13;;;5.90;;
60026;SDS011;45891;53.006;6.512;2023-05-10T09:40:12;10.55;;;5.20;;
60026;SDS011;45891;53.006;6.512;2023-05-10T09:45:28;10.20;;;4.60;;
60026;SDS011;45891;53.006;6.512;2023-05-10T09:47:56;9.50;;;5.15;;
60026;SDS011;45891;53.006;6.512;2023-05-10T09:50:24;10.10;;;5.53;;
60026;SDS011;45891;53.006;6.512;2023-05-10T09:52:51;10.88;;;5.60;;
60026;SDS011;45891;53.006;6.512;2023-05-10T09:55:22;10.60;;;5.60;;
60026;SDS011;45891;53.006;6.512;2023-05-10T09:57:58;11.40;;;4.82;;
60026;SDS011;45891;53.006;6.512;2023-05-10T10:00:26;12.13;;;5.88;;
60026;SDS011;45891;53.006;6.512;2023-05-10T10:02:56;11.07;;;5.22;;
60026;SDS011;45891;53.006;6.512;2023-05-10T10:05:30;12.30;;;6.18;;
60026;SDS011;45891;53.006;6.512;2023-05-10T10:07:57;11.70;;;5.82;;
60026;SDS011;45891;53.006;6.512;2023-05-10T10:10:24;10.45;;;5.43;;
60026;SDS011;45891;53.006;6.512;2023-05-10T10:12:51;9.25;;;5.22;;
60026;SDS011;45891;53.006;6.512;2023-05-10T10:15:18;10.52;;;5.13;;
60026;SDS011;45891;53.006;6.512;2023-05-10T10:17:45;11.43;;;6.18;;
60026;SDS011;45891;53.006;6.512;2023-05-10T10:20:13;11.35;;;5.00;;
60026;SDS011;45891;53.006;6.512;2023-05-10T10:22:40;12.57;;;5.35;;
60026;SDS011;45891;53.006;6.512;2023-05-10T10:25:07;10.73;;;5.43;;
60026;SDS011;45891;53.006;6.512;2023-05-10T10:27:57;11.68;;;4.75;;
60026;SDS011;45891;53.006;6.512;2023-05-10T10:30:35;10.00;;;5.13;;
60026;SDS011;45891;53.006;6.512;2023-05-10T10:36:13;10.27;;;5.30;;
60026;SDS011;45891;53.006;6.512;2023-05-10T10:49:43;10.95;;;5.22;;
60026;SDS011;45891;53.006;6.512;2023-05-10T11:08:12;10.93;;;6.07;;
60026;SDS011;45891;53.006;6.512;2023-05-10T11:10:39;10.27;;;5.30;;
60026;SDS011;45891;53.006;6.512;2023-05-10T11:13:14;10.53;;;5.50;;
60026;SDS011;45891;53.006;6.512;2023-05-10T11:15:40;12.05;;;5.78;;
60026;SDS011;45891;53.006;6.512;2023-05-10T11:20:43;12.05;;;5.30;;
60026;SDS011;45891;53.006;6.512;2023-05-10T11:23:12;9.95;;;5.13;;
60026;SDS011;45891;53.006;6.512;2023-05-10T11:25:41;9.88;;;5.15;;
60026;SDS011;45891;53.006;6.512;2023-05-10T11:28:09;9.73;;;4.78;;
60026;SDS011;45891;53.006;6.512;2023-05-10T11:30:40;11.10;;;5.43;;
60026;SDS011;45891;53.006;6.512;2023-05-10T11:33:07;9.90;;;5.25;;
60026;SDS011;45891;53.006;6.512;2023-05-10T11:35:37;10.15;;;5.00;;
60026;SDS011;45891;53.006;6.512;2023-05-10T11:38:05;9.73;;;4.72;;
60026;SDS011;45891;53.006;6.512;2023-05-10T11:40:35;10.27;;;4.68;;
60026;SDS011;45891;53.006;6.512;2023-05-10T11:43:01;10.82;;;5.20;;
60026;SDS011;45891;53.006;6.512;2023-05-10T11:45:28;11.35;;;5.20;;
60026;SDS011;45891;53.006;6.512;2023-05-10T11:47:57;12.35;;;5.28;;
60026;SDS011;45891;53.006;6.512;2023-05-10T11:50:24;11.40;;;5.00;;
60026;SDS011;45891;53.006;6.512;2023-05-10T11:52:54;9.88;;;5.43;;
60026;SDS011;45891;53.006;6.512;2023-05-10T11:55:22;10.18;;;5.60;;
60026;SDS011;45891;53.006;6.512;2023-05-10T11:57:51;12.25;;;5.90;;
60026;SDS011;45891;53.006;6.512;2023-05-10T12:00:18;11.77;;;6.18;;
60026;SDS011;45891;53.006;6.512;2023-05-10T12:02:45;11.48;;;6.22;;
60026;SDS011;45891;53.006;6.512;2023-05-10T12:05:11;11.80;;;6.50;;
60026;SDS011;45891;53.006;6.512;2023-05-10T12:07:38;12.07;;;6.30;;
60026;SDS011;45891;53.006;6.512;2023-05-10T12:10:11;11.02;;;6.30;;
60026;SDS011;45891;53.006;6.512;2023-05-10T12:12:43;11.30;;;6.75;;
60026;SDS011;45891;53.006;6.512;2023-05-10T12:15:20;13.35;;;6.93;;
60026;SDS011;45891;53.006;6.512;2023-05-10T12:17:48;15.32;;;6.20;;
60026;SDS011;45891;53.006;6.512;2023-05-10T12:22:51;11.88;;;6.82;;
60026;SDS011;45891;53.006;6.512;2023-05-10T12:25:19;12.57;;;6.50;;
60026;SDS011;45891;53.006;6.512;2023-05-10T12:27:50;12.18;;;6.50;;
60026;SDS011;45891;53.006;6.512;2023-05-10T12:30:24;12.82;;;6.97;;
60026;SDS011;45891;53.006;6.512;2023-05-10T12:32:52;10.95;;;6.57;;
60026;SDS011;45891;53.006;6.512;2023-05-10T12:35:19;11.73;;;6.05;;
60026;SDS011;45891;53.006;6.512;2023-05-10T12:37:50;12.18;;;6.82;;
60026;SDS011;45891;53.006;6.512;2023-05-10T12:40:16;14.45;;;6.82;;
60026;SDS011;45891;53.006;6.512;2023-05-10T12:42:42;11.80;;;7.03;;
60026;SDS011;45891;53.006;6.512;2023-05-10T12:45:10;12.07;;;6.90;;
60026;SDS011;45891;53.006;6.512;2023-05-10T12:47:36;12.32;;;7.18;;
60026;SDS011;45891;53.006;6.512;2023-05-10T12:50:03;13.32;;;7.38;;
60026;SDS011;45891;53.006;6.512;2023-05-10T12:52:30;12.52;;;7.05;;
60026;SDS011;45891;53.006;6.512;2023-05-10T12:55:00;12.57;;;6.93;;
60026;SDS011;45891;53.006;6.512;2023-05-10T12:57:26;12.75;;;7.00;;
60026;SDS011;45891;53.006;6.512;2023-05-10T12:59:53;13.52;;;6.57;;
60026;SDS011;45891;53.006;6.512;2023-05-10T13:02:20;12.20;;;6.88;;
60026;SDS011;45891;53.006;6.512;2023-05-10T13:04:48;13.60;;;6.75;;
60026;SDS011;45891;53.006;6.512;2023-05-10T13:07:15;14.82;;;7.13;;
60026;SDS011;45891;53.006;6.512;2023-05-10T13:09:41;13.02;;;6.65;;
60026;SDS011;45891;53.006;6.512;2023-05-10T13:12:07;13.85;;;7.55;;
60026;SDS011;45891;53.006;6.512;2023-05-10T13:14:33;12.73;;;6.47;;
60026;SDS011;45891;53.006;6.512;2023-05-10T13:16:59;13.57;;;7.00;;
60026;SDS011;45891;53.006;6.512;2023-05-10T13:19:25;13.13;;;7.13;;
60026;SDS011;45891;53.006;6.512;2023-05-10T13:21:51;14.55;;;8.23;;
60026;SDS011;45891;53.006;6.512;2023-05-10T13:24:18;14.68;;;8.05;;
60026;SDS011;45891;53.006;6.512;2023-05-10T13:26:44;35.85;;;9.60;;
60026;SDS011;45891;53.006;6.512;2023-05-10T13:29:10;17.58;;;8.13;;
60026;SDS011;45891;53.006;6.512;2023-05-10T13:31:37;13.32;;;7.63;;
60026;SDS011;45891;53.006;6.512;2023-05-10T13:34:03;13.48;;;7.45;;
60026;SDS011;45891;53.006;6.512;2023-05-10T13:36:29;13.88;;;7.75;;
60026;SDS011;45891;53.006;6.512;2023-05-10T13:38:55;12.63;;;7.50;;
60026;SDS011;45891;53.006;6.512;2023-05-10T13:41:21;13.43;;;7.65;;
60026;SDS011;45891;53.006;6.512;2023-05-10T13:43:48;13.25;;;7.70;;
60026;SDS011;45891;53.006;6.512;2023-05-10T13:46:14;12.30;;;7.20;;
60026;SDS011;45891;53.006;6.512;2023-05-10T13:48:40;13.52;;;8.23;;
60026;SDS011;45891;53.006;6.512;2023-05-10T13:51:06;14.00;;;7.90;;
60026;SDS011;45891;53.006;6.512;2023-05-10T13:53:33;14.80;;;8.07;;
60026;SDS011;45891;53.006;6.512;2023-05-10T13:55:59;14.25;;;7.55;;
60026;SDS011;45891;53.006;6.512;2023-05-10T13:58:25;11.82;;;7.07;;
60026;SDS011;45891;53.006;6.512;2023-05-10T14:00:51;13.48;;;7.47;;
60026;SDS011;45891;53.006;6.512;2023-05-10T14:03:17;12.75;;;7.20;;
60026;SDS011;45891;53.006;6.512;2023-05-10T14:05:43;13.50;;;7.78;;
60026;SDS011;45891;53.006;6.512;2023-05-10T14:08:10;14.27;;;7.55;;
60026;SDS011;45891;53.006;6.512;2023-05-10T14:10:38;11.20;;;6.65;;
60026;SDS011;45891;53.006;6.512;2023-05-10T14:13:05;12.98;;;6.82;;
60026;SDS011;45891;53.006;6.512;2023-05-10T14:15:31;12.68;;;6.07;;
60026;SDS011;45891;53.006;6.512;2023-05-10T14:17:57;12.95;;;6.60;;
60026;SDS011;45891;53.006;6.512;2023-05-10T14:20:24;11.93;;;6.75;;
60026;SDS011;45891;53.006;6.512;2023-05-10T14:22:50;11.73;;;6.30;;
60026;SDS011;45891;53.006;6.512;2023-05-10T14:25:16;12.65;;;6.28;;
60026;SDS011;45891;53.006;6.512;2023-05-10T14:27:43;11.68;;;6.53;;
60026;SDS011;45891;53.006;6.512;2023-05-10T14:30:09;13.10;;;6.35;;
60026;SDS011;45891;53.006;6.512;2023-05-10T14:32:35;10.85;;;6.75;;
60026;SDS011;45891;53.006;6.512;2023-05-10T14:35:02;12.10;;;6.18;;
60026;SDS011;45891;53.006;6.512;2023-05-10T14:37:29;11.52;;;6.78;;
60026;SDS011;45891;53.006;6.512;2023-05-10T14:39:55;11.45;;;6.30;;
60026;SDS011;45891;53.006;6.512;2023-05-10T14:42:21;13.13;;;6.22;;
60026;SDS011;45891;53.006;6.512;2023-05-10T14:44:47;11.52;;;5.80;;
60026;SDS011;45891;53.006;6.512;2023-05-10T14:47:13;13.48;;;6.32;;
60026;SDS011;45891;53.006;6.512;2023-05-10T14:49:39;10.88;;;5.97;;
60026;SDS011;45891;53.006;6.512;2023-05-10T14:52:06;10.50;;;5.50;;
60026;SDS011;45891;53.006;6.512;2023-05-10T14:54:32;10.00;;;5.40;;
60026;SDS011;45891;53.006;6.512;2023-05-10T14:56:59;10.07;;;4.70;;
60026;SDS011;45891;53.006;6.512;2023-05-10T14:59:26;9.88;;;4.28;;
60026;SDS011;45891;53.006;6.512;2023-05-10T15:01:52;10.77;;;4.60;;
60026;SDS011;45891;53.006;6.512;2023-05-10T15:04:18;9.82;;;4.50;;
60026;SDS011;45891;53.006;6.512;2023-05-10T15:06:44;9.07;;;4.65;;
60026;SDS011;45891;53.006;6.512;2023-05-10T15:09:10;9.45;;;4.65;;
60026;SDS011;45891;53.006;6.512;2023-05-10T15:11:36;11.23;;;5.15;;
60026;SDS011;45891;53.006;6.512;2023-05-10T15:14:02;12.07;;;5.10;;
60026;SDS011;45891;53.006;6.512;2023-05-10T15:16:28;10.20;;;4.80;;
60026;SDS011;45891;53.006;6.512;2023-05-10T15:18:54;9.30;;;4.80;;
60026;SDS011;45891;53.006;6.512;2023-05-10T15:21:20;10.95;;;5.30;;
60026;SDS011;45891;53.006;6.512;2023-05-10T15:23:46;9.07;;;4.75;;
60026;SDS011;45891;53.006;6.512;2023-05-10T15:26:13;11.25;;;4.93;;
60026;SDS011;45891;53.006;6.512;2023-05-10T15:28:39;10.73;;;4.60;;
60026;SDS011;45891;53.006;6.512;2023-05-10T15:31:05;12.02;;;4.95;;